Time;durP1;ratioP1;P1;durP2;ratioP2;P2;SDS_P1;SDS_P2;PMS_P1;PMS_P2;Temp;Humidity;BMP_temperature;BMP_pressure;BME280_temperature;BME280_humidity;BME280_pressure;Samples;Min_cycle;Max_cycle;Signal;HPM_P1;HPM_P2
2022/03/26 00:03:29;;;;;;;5.97;2.73;;;;;;;16.98;54.06;97461.97;10387199;28;20036;-21
2022/03/26 00:08:29;;;;;;;3.45;2.13;;;;;;;16.94;51.90;97461.91;10386855;28;20728;-21
2022/03/26 00:13:29;;;;;;;6.93;2.20;;;;;;;16.90;51.80;97460.16;10382411;28;20029;-21
2022/03/26 00:18:30;;;;;;;3.43;2.27;;;;;;;16.88;51.39;97467.69;10383537;28;20486;-21
2022/03/26 00:23:30;;;;;;;6.23;4.07;;;;;;;16.87;51.80;97462.59;10382146;28;20289;-21
2022/03/26 00:28:31;;;;;;;2.38;2.15;;;;;;;16.87;51.59;97465.13;10382446;28;20038;-22
2022/03/26 00:33:32;;;;;;;4.90;2.60;;;;;;;16.89;51.30;97466.03;10372102;28;20038;-22
2022/03/26 00:38:32;;;;;;;2.83;2.33;;;;;;;16.87;51.10;97460.06;10382215;28;20037;-22
2022/03/26 00:43:32;;;;;;;2.60;2.13;;;;;;;16.90;51.10;97455.09;10383760;28;20063;-21
2022/03/26 00:48:33;;;;;;;3.00;2.43;;;;;;;16.87;51.20;97442.38;10391937;28;20323;-21
2022/03/26 00:53:33;;;;;;;1.80;1.70;;;;;;;16.90;50.95;97450.03;10388850;28;20127;-21
2022/03/26 00:58:33;;;;;;;7.27;3.10;;;;;;;16.97;54.79;97446.75;10380106;28;20029;-21
2022/03/26 01:03:34;;;;;;;5.77;3.47;;;;;;;17.03;55.32;97447.75;10395286;28;20296;-22
2022/03/26 01:08:34;;;;;;;8.30;3.93;;;;;;;16.97;55.07;97429.06;10381272;28;20288;-22
2022/03/26 01:13:35;;;;;;;2.40;2.03;;;;;;;16.95;52.01;97450.94;10381826;28;20799;-21
2022/03/26 01:18:36;;;;;;;2.65;2.45;;;;;;;16.93;51.17;97456.00;10380227;28;20279;-21
2022/03/26 01:23:36;;;;;;;4.53;2.47;;;;;;;16.91;51.75;97451.72;10390133;28;20030;-22
2022/03/26 01:28:37;;;;;;;3.33;3.03;;;;;;;16.88;51.50;97446.59;10380322;28;20030;-21
2022/03/26 01:33:37;;;;;;;2.42;2.22;;;;;;;16.87;51.35;97445.78;10382251;28;20030;-21
2022/03/26 01:38:38;;;;;;;4.13;2.43;;;;;;;16.84;51.21;97449.91;10380829;28;20026;-22
2022/03/26 01:43:40;;;;;;;2.47;2.20;;;;;;;16.85;51.52;97449.09;10378812;28;20664;-22
2022/03/26 01:48:40;;;;;;;3.05;2.33;;;;;;;16.83;51.68;97448.22;10391515;28;20030;-21
2022/03/26 01:53:48;;;;;;;2.78;2.45;;;;;;;16.83;51.36;97435.56;10382686;28;20121;-22
2022/03/26 01:58:48;;;;;;;2.53;2.20;;;;;;;16.84;51.24;97439.81;10379699;28;20034;-21
2022/03/26 02:03:49;;;;;;;3.25;2.38;;;;;;;16.82;51.60;97441.47;10381812;28;20128;-21
2022/03/26 02:08:50;;;;;;;4.32;3.67;;;;;;;16.98;55.55;97443.44;10379984;28;20038;-22
2022/03/26 02:13:55;;;;;;;3.03;2.60;;;;;;;17.03;55.73;97436.75;10376277;28;20417;-22
2022/03/26 02:18:55;;;;;;;4.25;2.75;;;;;;;17.00;54.72;97426.59;10379305;28;20917;-22
2022/03/26 02:23:56;;;;;;;3.35;2.50;;;;;;;16.92;52.42;97433.19;10381936;28;20037;-22
2022/03/26 02:29:03;;;;;;;4.95;2.40;;;;;;;16.86;51.96;97423.84;10378153;28;20033;-22
2022/03/26 02:34:04;;;;;;;;;;;;;;;16.80;51.72;97428.78;10378335;28;20111;-22
2022/03/26 02:39:05;;;;;;;2.85;2.33;;;;;;;16.82;51.74;97436.41;10388200;28;19913;-22
2022/03/26 02:44:05;;;;;;;2.40;1.95;;;;;;;16.82;51.54;97427.13;10390148;28;20026;-22
2022/03/26 02:49:06;;;;;;;3.47;2.13;;;;;;;16.82;51.58;97426.28;10389421;28;20050;-22
2022/03/26 02:54:18;;;;;;;2.85;2.03;;;;;;;16.81;51.63;97427.13;10386545;28;20067;-21
2022/03/26 02:59:19;;;;;;;4.03;2.20;;;;;;;16.80;51.19;97421.19;10386362;28;20405;-22
2022/03/26 03:04:21;;;;;;;2.40;2.15;;;;;;;16.81;51.67;97419.53;10389410;28;20034;-22
2022/03/26 03:09:21;;;;;;;3.08;2.38;;;;;;;16.79;51.57;97421.16;10368784;28;20041;-22
2022/03/26 03:14:21;;;;;;;4.45;2.72;;;;;;;16.86;54.54;97428.03;10383059;28;20033;-23
2022/03/26 03:19:22;;;;;;;7.37;3.17;;;;;;;16.99;55.97;97424.91;10388609;28;20032;-21
2022/03/26 03:24:22;;;;;;;5.30;3.60;;;;;;;17.03;56.06;97424.09;10383746;28;20057;-22
2022/03/26 03:29:22;;;;;;;4.03;2.90;;;;;;;16.96;53.65;97420.63;10384575;28;20092;-21
2022/03/26 03:34:23;;;;;;;3.60;2.33;;;;;;;16.88;52.06;97411.19;10383443;28;20034;-21
2022/03/26 03:39:24;;;;;;;2.88;2.55;;;;;;;16.84;51.82;97414.50;10387468;28;20022;-21
2022/03/26 03:44:25;;;;;;;2.67;2.37;;;;;;;16.84;51.71;97419.56;10382931;28;20025;-22
2022/03/26 03:49:26;;;;;;;3.17;2.88;;;;;;;16.83;51.83;97412.81;10386617;28;20289;-21
2022/03/26 03:54:27;;;;;;;3.28;2.80;;;;;;;16.83;52.02;97412.81;10382436;28;20033;-22
2022/03/26 03:59:27;;;;;;;3.72;2.50;;;;;;;16.81;51.34;97419.53;10381277;28;20421;-22
2022/03/26 04:04:28;;;;;;;2.53;2.10;;;;;;;16.80;51.30;97422.84;10380725;28;20029;-22
2022/03/26 04:09:28;;;;;;;1.95;1.77;;;;;;;16.80;51.62;97417.78;10383716;28;20030;-22
2022/03/26 04:14:31;;;;;;;3.73;2.50;;;;;;;16.78;51.77;97419.44;10384434;28;20037;-22
2022/03/26 04:19:31;;;;;;;2.85;2.15;;;;;;;16.79;51.54;97427.06;10382979;28;20029;-22
2022/03/26 04:24:32;;;;;;;3.80;3.03;;;;;;;16.90;55.99;97435.69;10379201;28;20038;-21
2022/03/26 04:29:32;;;;;;;4.95;2.67;;;;;;;16.98;56.34;97423.19;10387731;28;20452;-21
2022/03/26 04:34:33;;;;;;;4.50;3.10;;;;;;;16.98;55.72;97418.97;10383240;28;20056;-22
2022/03/26 04:39:34;;;;;;;3.67;2.83;;;;;;;16.92;53.71;97423.09;10384027;28;20037;-22
2022/03/26 04:44:35;;;;;;;3.28;2.22;;;;;;;16.85;51.75;97427.19;10379775;28;20113;-22
2022/03/26 04:49:36;;;;;;;2.40;2.20;;;;;;;16.81;51.81;97425.41;10397793;28;20037;-22
2022/03/26 04:54:38;;;;;;;2.70;2.30;;;;;;;16.80;51.29;97425.38;10381949;28;20030;-21
2022/03/26 04:59:38;;;;;;;3.90;2.65;;;;;;;16.79;51.59;97427.06;10378536;28;20060;-22
2022/03/26 05:04:39;;;;;;;4.33;2.57;;;;;;;16.77;51.29;97418.63;10377908;28;20043;-22
2022/03/26 05:09:39;;;;;;;2.55;2.35;;;;;;;16.78;51.40;97425.38;10380900;28;20033;-22
2022/03/26 05:14:40;;;;;;;3.10;2.53;;;;;;;16.78;51.55;97425.38;10381094;28;20402;-22
2022/03/26 05:19:40;;;;;;;2.47;2.27;;;;;;;16.78;51.97;97421.97;10381034;28;20523;-21
2022/03/26 05:24:40;;;;;;;4.63;3.23;;;;;;;16.78;51.76;97420.31;10378369;28;20039;-22
2022/03/26 05:29:41;;;;;;;3.57;3.00;;;;;;;16.78;51.29;97424.50;10380038;28;20139;-21
2022/03/26 05:34:42;;;;;;;3.00;2.70;;;;;;;16.92;56.00;97412.97;10379823;28;20045;-20
2022/03/26 05:39:42;;;;;;;3.72;2.92;;;;;;;16.99;56.17;97425.72;10378619;28;20026;-21
2022/03/26 05:44:42;;;;;;;4.13;2.63;;;;;;;16.96;55.01;97435.81;10379476;28;20034;-21
2022/03/26 05:49:43;;;;;;;2.83;2.53;;;;;;;16.90;52.54;97434.84;10375609;28;20040;-22
2022/03/26 05:54:43;;;;;;;4.20;3.77;;;;;;;16.84;53.11;97438.09;10391892;28;20052;-22
2022/03/26 05:59:44;;;;;;;2.50;2.30;;;;;;;16.84;51.72;97449.91;10379487;28;20891;-22
2022/03/26 06:04:44;;;;;;;3.45;2.08;;;;;;;16.85;51.38;97446.56;10372932;28;20084;-22
2022/03/26 06:09:45;;;;;;;3.13;2.35;;;;;;;16.89;51.43;97449.16;10378383;28;20034;-21
2022/03/26 06:14:46;;;;;;;2.50;2.10;;;;;;;16.91;51.50;97451.72;10384628;28;20397;-21
2022/03/26 06:19:46;;;;;;;3.22;2.88;;;;;;;16.95;53.41;97463.59;10379859;28;20032;-21
2022/03/26 06:24:46;;;;;;;5.17;3.97;;;;;;;16.95;53.46;97453.47;10379710;28;20095;-21
2022/03/26 06:29:47;;;;;;;5.47;3.43;;;;;;;16.95;53.18;97463.59;10387734;28;20037;-21
2022/03/26 06:34:47;;;;;;;6.57;3.93;;;;;;;16.94;51.56;97456.84;10383101;28;20037;-21
2022/03/26 06:39:47;;;;;;;4.60;4.00;;;;;;;16.98;53.07;97453.56;10373482;28;20036;-20
2022/03/26 06:44:48;;;;;;;6.90;5.00;;;;;;;17.00;53.78;97456.94;10375363;28;20490;-21
2022/03/26 06:49:49;;;;;;;6.53;4.77;;;;;;;17.03;53.34;97457.84;10378247;28;20494;-21
2022/03/26 06:54:50;;;;;;;4.35;2.60;;;;;;;17.04;51.80;97446.03;10373362;28;20116;-22
2022/03/26 06:59:51;;;;;;;3.45;2.40;;;;;;;17.04;50.87;97453.63;10376904;28;20125;-21
2022/03/26 07:04:52;;;;;;;6.35;3.80;;;;;;;17.01;50.88;97463.72;10373875;28;20084;-21
2022/03/26 07:09:52;;;;;;;3.20;2.57;;;;;;;17.02;50.58;97470.47;10379849;28;20084;-22
2022/03/26 07:14:54;;;;;;;3.23;2.80;;;;;;;17.01;50.44;97481.41;10370666;28;21027;-22
2022/03/26 07:19:54;;;;;;;10.90;3.80;;;;;;;17.03;52.90;97487.34;10369906;28;20273;-21
2022/03/26 07:24:54;;;;;;;6.00;3.47;;;;;;;17.01;51.55;97483.94;10377012;28;20030;-21
2022/03/26 07:29:55;;;;;;;6.67;4.27;;;;;;;17.02;52.53;97490.72;10383741;28;20057;-22
2022/03/26 07:34:55;;;;;;;10.27;7.53;;;;;;;16.99;50.77;97491.50;10383826;28;20044;-21
2022/03/26 07:39:56;;;;;;;7.20;4.55;;;;;;;17.05;51.08;97483.16;10384910;28;20053;-22
2022/03/26 07:44:56;;;;;;;3.50;3.20;;;;;;;17.00;51.59;97502.47;10379873;28;20041;-21
2022/03/26 07:49:56;;;;;;;11.30;4.22;;;;;;;17.05;54.06;97516.91;10382935;28;20038;-22
2022/03/26 07:54:57;;;;;;;12.60;4.18;;;;;;;17.07;54.74;97492.50;10383095;28;20498;-22
2022/03/26 07:59:58;;;;;;;8.65;4.30;;;;;;;17.07;54.07;97509.38;10374671;28;20096;-21
2022/03/26 08:04:59;;;;;;;11.70;4.07;;;;;;;17.03;52.11;97507.59;10381714;28;20045;-21
2022/03/26 08:09:59;;;;;;;3.88;3.03;;;;;;;16.99;50.98;97513.44;10377626;28;20305;-22
2022/03/26 08:15:00;;;;;;;4.80;3.17;;;;;;;16.96;51.18;97506.63;10385510;28;20041;-22
2022/03/26 08:20:01;;;;;;;4.03;2.65;;;;;;;16.98;51.09;97514.25;10373189;28;20656;-21
2022/03/26 08:25:01;;;;;;;7.97;2.92;;;;;;;16.96;51.18;97515.88;10383194;28;20092;-22
2022/03/26 08:30:04;;;;;;;3.88;3.00;;;;;;;16.95;51.04;97522.63;10389184;28;20489;-22
2022/03/26 08:35:05;;;;;;;3.67;3.03;;;;;;;16.97;51.26;97520.13;10381935;28;20387;-22
2022/03/26 08:40:06;;;;;;;3.88;2.95;;;;;;;16.95;50.86;97516.72;10386445;28;20029;-21
2022/03/26 08:45:07;;;;;;;4.05;3.30;;;;;;;16.96;51.39;97520.94;10376980;28;20494;-22
2022/03/26 08:50:08;;;;;;;17.60;11.32;;;;;;;16.97;51.68;97522.66;10389185;28;20029;-22
2022/03/26 08:55:09;;;;;;;22.50;11.05;;;;;;;16.97;51.97;97517.59;10386913;28;20037;-22
2022/03/26 09:00:11;;;;;;;20.73;13.98;;;;;;;17.05;52.18;97526.16;10392890;28;20029;-21
2022/03/26 09:05:14;;;;;;;28.42;12.40;;;;;;;17.05;49.12;97521.09;10389053;28;20091;-21
2022/03/26 09:10:14;;;;;;;18.13;11.32;;;;;;;16.97;49.87;97518.44;10382139;28;20406;-20
2022/03/26 09:15:15;;;;;;;12.63;7.53;;;;;;;16.96;50.66;97510.81;10384366;28;20034;-22
2022/03/26 09:20:15;;;;;;;22.48;12.30;;;;;;;16.95;48.86;97519.25;10381888;28;20497;-22
2022/03/26 09:25:17;;;;;;;19.00;9.83;;;;;;;16.85;50.34;97517.38;10384609;28;20037;-22
2022/03/26 09:30:18;;;;;;;19.42;11.38;;;;;;;16.68;47.71;97521.25;10388326;28;20124;-21
2022/03/26 09:35:18;;;;;;;24.80;17.50;;;;;;;16.62;45.66;97518.59;10391372;28;20029;-20
2022/03/26 09:40:22;;;;;;;21.67;11.30;;;;;;;16.64;47.19;97522.03;10371068;28;20018;-20
2022/03/26 09:45:23;;;;;;;34.05;16.92;;;;;;;16.68;47.63;97523.78;10396479;28;20064;-23
2022/03/26 09:50:23;;;;;;;16.20;8.25;;;;;;;16.79;49.31;97522.31;10383844;28;20065;-21
2022/03/26 09:55:24;;;;;;;12.18;7.50;;;;;;;16.86;49.84;97511.50;10381653;28;20033;-21
2022/03/26 10:00:24;;;;;;;15.50;10.90;;;;;;;16.88;50.14;97505.63;10376257;28;20392;-22
2022/03/26 10:05:34;;;;;;;21.00;12.10;;;;;;;16.92;50.76;97504.84;10376646;28;20036;-22
2022/03/26 10:10:42;;;;;;;19.13;11.85;;;;;;;17.00;50.46;97505.84;10382831;28;20029;-22
2022/03/26 10:16:06;;;;;;;16.55;10.02;;;;;;;17.03;50.62;97498.34;10381184;28;20087;-20
2022/03/26 10:21:12;;;;;;;16.45;9.93;;;;;;;16.99;50.08;97491.50;10377945;28;20079;-21
2022/03/26 10:26:17;;;;;;;21.23;10.10;;;;;;;16.97;50.88;97480.50;10381240;28;20030;-21
2022/03/26 10:36:54;;;;;;;14.95;8.20;;;;;;;16.99;50.47;97476.31;10377310;28;20038;-21
2022/03/26 10:41:55;;;;;;;12.05;6.95;;;;;;;16.98;50.32;97468.72;10378152;28;20029;-22
2022/03/26 10:46:57;;;;;;;14.85;5.72;;;;;;;16.99;50.44;97472.97;10363875;28;20044;-22
2022/03/26 10:52:08;;;;;;;12.98;7.10;;;;;;;16.92;50.57;97458.50;10379060;28;20030;-22
2022/03/26 10:57:10;;;;;;;9.48;6.28;;;;;;;17.00;50.19;97472.97;10384587;28;20030;-21
2022/03/26 11:02:10;;;;;;;13.15;5.45;;;;;;;17.02;50.31;97466.28;10399205;28;20472;-22
2022/03/26 11:07:11;;;;;;;15.77;9.33;;;;;;;16.99;50.54;97465.38;10373708;28;20034;-21
2022/03/26 11:12:14;;;;;;;10.70;5.68;;;;;;;16.96;50.71;97455.19;10385486;28;20276;-22
2022/03/26 11:17:29;;;;;;;20.77;13.82;;;;;;;17.07;48.75;97453.72;10365511;28;20037;-21
2022/03/26 11:22:38;;;;;;;19.02;12.68;;;;;;;17.10;46.71;97451.22;10391272;28;20037;-20
2022/03/26 11:27:38;;;;;;;22.05;9.70;;;;;;;17.06;48.48;97444.41;10384071;28;20124;-21
2022/03/26 11:32:45;;;;;;;26.40;12.83;;;;;;;17.16;46.91;97458.91;10383038;28;20117;-21
2022/03/26 11:37:52;;;;;;;21.98;11.60;;;;;;;17.06;49.97;97446.94;10387419;28;20044;-22
2022/03/26 11:42:52;;;;;;;18.65;12.88;;;;;;;17.17;49.32;97447.97;10366068;28;20030;-22
2022/03/26 11:53:37;;;;;;;22.45;15.43;;;;;;;17.31;46.53;97433.88;10383991;28;20530;-22
2022/03/26 11:58:37;;;;;;;25.63;14.93;;;;;;;17.28;46.41;97426.22;10379170;28;20068;-22
2022/03/26 12:03:43;;;;;;;23.70;15.60;;;;;;;17.30;45.70;97425.41;10387515;28;20486;-22
2022/03/26 12:08:53;;;;;;;23.58;15.07;;;;;;;17.22;46.77;97413.44;10396651;28;20022;-21
2022/03/26 12:14:03;;;;;;;19.35;14.40;;;;;;;17.25;46.64;97416.06;10377828;28;20292;-21
2022/03/26 12:19:05;;;;;;;23.77;16.13;;;;;;;16.92;46.16;97413.81;10374158;28;20034;-21
2022/03/26 12:24:16;;;;;;;17.90;13.13;;;;;;;17.22;47.88;97403.31;10370736;28;20041;-21
2022/03/26 12:29:17;;;;;;;22.58;12.27;;;;;;;17.29;47.36;97406.00;10374099;28;20048;-21
2022/03/26 12:34:18;;;;;;;19.42;11.70;;;;;;;17.26;47.65;97407.63;10393891;28;20060;-21
2022/03/26 12:39:18;;;;;;;18.55;12.52;;;;;;;17.07;46.78;97403.94;10375493;28;20033;-22
2022/03/26 12:44:19;;;;;;;20.02;12.48;;;;;;;17.12;48.00;97398.97;10359001;28;20044;-21
2022/03/26 12:49:21;;;;;;;19.40;12.98;;;;;;;17.17;48.34;97394.84;10390401;28;20046;-21
2022/03/26 12:54:22;;;;;;;20.02;13.15;;;;;;;17.03;46.44;97387.03;10379261;28;20049;-22
2022/03/26 12:59:23;;;;;;;16.73;10.93;;;;;;;17.17;47.54;97384.72;10380794;28;20026;-22
2022/03/26 13:04:23;;;;;;;15.13;11.20;;;;;;;17.18;47.50;97389.81;10382070;28;20028;-22
2022/03/26 13:09:31;;;;;;;17.42;10.88;;;;;;;17.19;47.01;97378.84;10379106;28;20076;-21
2022/03/26 13:14:31;;;;;;;14.75;11.57;;;;;;;17.09;47.68;97376.97;10376413;28;20545;-22
2022/03/26 13:19:35;;;;;;;14.73;11.90;;;;;;;17.17;47.17;97385.53;10385265;28;20033;-21
2022/03/26 13:24:35;;;;;;;17.85;11.88;;;;;;;16.99;47.67;97374.31;10385441;28;20017;-22
2022/03/26 13:29:36;;;;;;;20.87;12.07;;;;;;;17.16;48.29;97366.13;10388910;28;20041;-21
2022/03/26 13:34:42;;;;;;;18.00;11.50;;;;;;;17.01;48.34;97357.47;10382464;28;20044;-21
2022/03/26 13:39:47;;;;;;;13.48;10.73;;;;;;;17.16;48.68;97362.78;10370973;28;20021;-22
2022/03/26 13:44:50;;;;;;;18.25;12.25;;;;;;;16.77;46.44;97359.59;10387790;28;20033;-22
2022/03/26 13:50:08;;;;;;;14.48;11.02;;;;;;;16.94;48.00;97355.66;10382529;28;20663;-22
2022/03/26 13:55:48;;;;;;;19.30;11.00;;;;;;;17.21;47.75;97353.56;10380503;28;20033;-21
2022/03/26 14:00:53;;;;;;;18.13;11.85;;;;;;;17.05;48.39;97349.09;10162200;29;20500;-22
2022/03/26 14:05:55;;;;;;;23.13;12.57;;;;;;;17.38;48.06;97342.03;10334216;28;20048;-21
2022/03/26 14:10:55;;;;;;;25.35;15.65;;;;;;;17.72;37.75;97337.44;10380406;28;20033;-21
2022/03/26 14:15:56;;;;;;;25.98;14.35;;;;;;;17.48;43.25;97332.06;10380005;28;20455;-22
2022/03/26 14:20:56;;;;;;;24.92;13.77;;;;;;;16.95;44.36;97322.81;10379718;28;20025;-21
2022/03/26 14:25:57;;;;;;;21.13;12.63;;;;;;;17.24;44.74;97321.56;10362891;28;20478;-22
2022/03/26 14:30:57;;;;;;;22.33;12.77;;;;;;;17.21;44.78;97326.59;10380599;28;20084;-21
2022/03/26 14:35:57;;;;;;;21.27;12.27;;;;;;;17.13;45.06;97328.16;10389997;28;20187;-22
2022/03/26 14:40:59;;;;;;;19.80;11.77;;;;;;;17.17;45.43;97324.00;10379738;28;20488;-21
2022/03/26 14:46:00;;;;;;;21.63;11.32;;;;;;;17.21;45.65;97315.59;10368127;28;20300;-23
2022/03/26 14:51:00;;;;;;;20.05;13.73;;;;;;;17.47;41.98;97315.16;10377837;28;20041;-20
2022/03/26 14:56:01;;;;;;;25.67;16.65;;;;;;;17.58;40.30;97306.03;10391779;28;20053;-22
2022/03/26 15:01:02;;;;;;;22.73;14.20;;;;;;;17.41;42.52;97310.03;10396131;28;20025;-21
2022/03/26 15:06:03;;;;;;;22.08;14.10;;;;;;;17.37;42.38;97305.75;10377246;28;20033;-21
2022/03/26 15:11:04;;;;;;;20.13;13.20;;;;;;;17.13;42.87;97309.56;10378630;28;20045;-21
2022/03/26 15:16:04;;;;;;;17.40;12.68;;;;;;;16.75;43.89;97318.28;10391739;28;20036;-21
2022/03/26 15:21:05;;;;;;;18.65;12.63;;;;;;;17.28;42.48;97312.31;10390975;28;20037;-21
2022/03/26 15:26:05;;;;;;;18.40;13.20;;;;;;;17.07;43.11;97306.97;10393392;28;20079;-21
2022/03/26 15:31:06;;;;;;;19.80;13.20;;;;;;;17.55;39.20;97315.25;10389669;28;20037;-20
2022/03/26 15:36:06;;;;;;;21.10;14.50;;;;;;;17.59;37.95;97304.34;10393598;28;20083;-20
2022/03/26 15:41:06;;;;;;;23.70;15.17;;;;;;;17.80;36.53;97315.59;10392623;28;20029;-21
2022/03/26 15:46:07;;;;;;;17.67;12.93;;;;;;;17.55;39.24;97302.59;10392500;28;20041;-21
2022/03/26 15:51:07;;;;;;;23.07;12.50;;;;;;;17.55;40.66;97307.66;10393394;28;20564;-21
2022/03/26 15:56:08;;;;;;;22.33;13.98;;;;;;;17.72;36.29;97304.53;10383345;28;20048;-22
2022/03/26 16:01:11;;;;;;;30.07;15.17;;;;;;;17.60;37.86;97304.38;10379072;28;20478;-22
2022/03/26 16:06:13;;;;;;;22.60;14.07;;;;;;;17.12;40.13;97301.16;10381965;28;20112;-22
2022/03/26 16:11:13;;;;;;;19.98;12.18;;;;;;;17.15;41.67;97313.00;10393215;28;20113;-21
2022/03/26 16:16:14;;;;;;;24.40;11.50;;;;;;;17.32;42.25;97319.97;10380219;28;20109;-21
2022/03/26 16:21:15;;;;;;;20.30;11.93;;;;;;;17.11;42.83;97301.97;10387949;28;20355;-22
2022/03/26 16:26:16;;;;;;;25.08;13.30;;;;;;;17.12;42.84;97316.34;10394602;28;20633;-21
2022/03/26 16:31:16;;;;;;;23.65;13.32;;;;;;;17.00;43.24;97318.66;10378379;28;20113;-22
2022/03/26 16:36:17;;;;;;;22.52;12.07;;;;;;;17.07;43.72;97317.94;10383005;28;20030;-21
2022/03/26 16:41:18;;;;;;;27.45;12.77;;;;;;;17.08;43.84;97328.91;10396270;28;20091;-23
2022/03/26 16:46:19;;;;;;;21.83;12.02;;;;;;;17.15;44.27;97323.13;10377107;28;20025;-22
2022/03/26 16:51:19;;;;;;;19.58;12.73;;;;;;;17.21;44.09;97340.91;10381189;28;20026;-22
2022/03/26 16:56:19;;;;;;;22.10;11.70;;;;;;;17.20;43.92;97351.84;10380690;28;20034;-21
2022/03/26 17:01:20;;;;;;;27.67;11.93;;;;;;;17.14;43.78;97347.56;10389510;28;20030;-23
2022/03/26 17:06:20;;;;;;;22.57;11.63;;;;;;;17.10;44.26;97352.56;10378150;28;20304;-22
2022/03/26 17:11:21;;;;;;;17.50;9.60;;;;;;;17.03;44.74;97361.72;10382270;28;20425;-22
2022/03/26 17:16:21;;;;;;;18.93;10.37;;;;;;;17.02;44.40;97364.22;10386496;28;20297;-21
2022/03/26 17:21:21;;;;;;;18.40;9.97;;;;;;;17.01;44.52;97365.06;10384547;28;20293;-21
2022/03/26 17:26:22;;;;;;;17.53;10.50;;;;;;;16.99;44.56;97364.19;10390526;28;20045;-21
2022/03/26 17:31:22;;;;;;;20.73;10.77;;;;;;;16.99;45.16;97374.31;10386292;28;20776;-21
2022/03/26 17:36:23;;;;;;;19.90;9.30;;;;;;;16.99;45.16;97380.19;10377269;28;20034;-22
2022/03/26 17:41:23;;;;;;;15.40;8.52;;;;;;;16.98;44.80;97380.19;10388441;28;20482;-22
2022/03/26 17:46:24;;;;;;;15.23;8.07;;;;;;;16.97;45.47;97394.50;10382708;28;20295;-21
2022/03/26 17:51:24;;;;;;;17.63;8.95;;;;;;;16.94;46.14;97401.19;10381965;28;20401;-21
2022/03/26 17:56:26;;;;;;;19.77;8.17;;;;;;;17.06;46.25;97396.34;10373974;28;20486;-22
2022/03/26 18:01:27;;;;;;;17.17;8.48;;;;;;;17.10;46.26;97408.22;10373478;28;20347;-22
2022/03/26 18:06:29;;;;;;;18.98;8.27;;;;;;;17.12;45.90;97416.66;10390329;28;20112;-22
2022/03/26 18:11:30;;;;;;;17.65;8.15;;;;;;;17.07;45.61;97426.72;10382877;28;20084;-22
2022/03/26 18:16:30;;;;;;;21.25;8.68;;;;;;;17.01;46.71;97434.22;10388109;28;20044;-22
2022/03/26 18:21:31;;;;;;;19.13;8.73;;;;;;;17.00;46.00;97436.72;10377134;28;20418;-22
2022/03/26 18:26:31;;;;;;;16.90;7.23;;;;;;;16.97;45.92;97445.09;10391384;28;20397;-22
2022/03/26 18:31:32;;;;;;;20.07;6.90;;;;;;;16.96;46.03;97457.72;10386409;28;20501;-21
2022/03/26 18:36:32;;;;;;;18.40;8.07;;;;;;;16.89;45.75;97455.94;10378841;28;20441;-21
2022/03/26 18:41:37;;;;;;;8.60;6.73;;;;;;;16.93;46.16;97471.19;10387530;28;22322;-22
2022/03/26 18:46:37;;;;;;;13.02;6.78;;;;;;;16.87;46.33;97477.78;10368995;28;20308;-22
2022/03/26 18:51:39;;;;;;;15.13;7.47;;;;;;;16.97;46.93;97487.22;10380393;28;20049;-22
2022/03/26 18:56:39;;;;;;;18.13;9.15;;;;;;;17.09;48.28;97487.47;10373033;28;20034;-22
2022/03/26 19:01:40;;;;;;;17.70;8.43;;;;;;;17.17;48.43;97496.03;10369785;28;20037;-22
2022/03/26 19:06:40;;;;;;;17.42;6.97;;;;;;;17.16;48.19;97492.66;10385949;28;20441;-22
2022/03/26 19:11:40;;;;;;;9.30;6.20;;;;;;;17.09;46.33;97492.53;10371403;28;20041;-21
2022/03/26 19:16:41;;;;;;;26.43;7.43;;;;;;;16.98;46.30;97483.91;10363752;28;20033;-22
2022/03/26 19:21:41;;;;;;;8.63;6.47;;;;;;;17.05;46.44;97490.75;10382406;28;20770;-22
2022/03/26 19:26:44;;;;;;;9.27;6.03;;;;;;;17.04;46.43;97499.16;10364877;28;20551;-23
2022/03/26 19:31:44;;;;;;;11.85;6.72;;;;;;;17.04;46.37;97506.75;10378524;28;20029;-22
2022/03/26 19:36:45;;;;;;;11.90;6.00;;;;;;;17.03;46.19;97508.44;10369466;28;20036;-21
2022/03/26 19:41:45;;;;;;;10.38;5.35;;;;;;;17.04;46.33;97519.41;10375694;28;20033;-24
2022/03/26 19:46:47;;;;;;;6.67;5.27;;;;;;;17.00;46.52;97512.59;10372557;28;20034;-22
2022/03/26 19:51:48;;;;;;;8.15;5.95;;;;;;;17.01;46.55;97524.44;10378918;28;20309;-22
2022/03/26 19:56:49;;;;;;;16.83;7.57;;;;;;;17.10;49.35;97529.66;10382008;28;20041;-23
2022/03/26 20:01:49;;;;;;;12.23;7.47;;;;;;;17.06;49.34;97507.66;10369822;28;20457;-22
2022/03/26 20:06:50;;;;;;;11.63;7.10;;;;;;;17.15;48.28;97528.91;10370424;28;20509;-22
2022/03/26 20:11:50;;;;;;;11.10;5.88;;;;;;;17.02;47.03;97521.06;10371787;28;20044;-22
2022/03/26 20:22:10;;;;;;;7.75;5.03;;;;;;;17.01;46.83;97534.53;10372020;28;20056;-22
2022/03/26 20:27:12;;;;;;;6.47;5.60;;;;;;;16.99;46.73;97531.13;10382047;28;20041;-23
2022/03/26 20:32:12;;;;;;;7.13;5.78;;;;;;;17.00;46.73;97537.91;10375821;28;20583;-21
2022/03/26 20:37:13;;;;;;;9.47;6.40;;;;;;;16.97;47.29;97543.75;10369597;28;20033;-21
2022/03/26 20:42:13;;;;;;;6.72;5.95;;;;;;;16.98;46.63;97559.78;10373146;28;20033;-22
2022/03/26 20:47:14;;;;;;;8.75;5.93;;;;;;;16.96;46.95;97547.09;10381538;28;20033;-22
2022/03/26 20:52:14;;;;;;;11.27;5.63;;;;;;;16.95;46.86;97558.06;10386039;28;20038;-22
2022/03/26 20:57:14;;;;;;;13.13;10.13;;;;;;;17.05;49.36;97556.53;10376474;28;20030;-22
2022/03/26 21:02:15;;;;;;;15.52;11.50;;;;;;;17.17;49.86;97560.13;10375913;28;20034;-22
2022/03/26 21:07:15;;;;;;;14.80;9.82;;;;;;;17.18;48.73;97561.00;10385627;28;20092;-22
2022/03/26 21:12:16;;;;;;;9.18;6.70;;;;;;;17.05;47.03;97571.72;10384211;28;20547;-22
2022/03/26 21:17:17;;;;;;;8.60;7.13;;;;;;;16.97;47.07;97565.66;10375236;28;20408;-22
2022/03/26 21:22:20;;;;;;;7.40;6.03;;;;;;;16.98;46.97;97574.97;10384713;28;20295;-22
2022/03/26 21:27:21;;;;;;;10.25;6.78;;;;;;;16.97;47.20;97579.16;10380526;28;20037;-22
2022/03/26 21:32:21;;;;;;;8.77;6.45;;;;;;;16.97;47.09;97570.72;10378852;28;20088;-21
2022/03/26 21:37:22;;;;;;;6.18;5.57;;;;;;;16.95;47.11;97575.75;10378400;28;20044;-21
2022/03/26 21:42:23;;;;;;;9.23;6.10;;;;;;;16.95;47.34;97585.88;10381294;28;20099;-22
2022/03/26 21:47:23;;;;;;;10.40;6.10;;;;;;;16.91;46.97;97576.50;10377773;28;20042;-22
2022/03/26 21:52:23;;;;;;;6.73;5.73;;;;;;;16.95;47.12;97574.88;10384064;28;20046;-22
2022/03/26 21:57:24;;;;;;;12.03;8.70;;;;;;;16.99;48.96;97576.66;10377138;28;20036;-24
2022/03/26 22:02:24;;;;;;;17.53;10.83;;;;;;;17.11;49.98;97576.88;10377053;28;20029;-22
2022/03/26 22:07:25;;;;;;;9.20;7.77;;;;;;;17.11;49.15;97576.88;10383988;28;20037;-22
2022/03/26 22:12:25;;;;;;;9.50;7.93;;;;;;;17.07;47.89;97581.03;10375219;28;20087;-22
2022/03/26 22:17:26;;;;;;;9.32;6.90;;;;;;;17.00;47.50;97583.44;10380435;28;20030;-22
2022/03/26 22:22:26;;;;;;;6.68;5.53;;;;;;;16.98;47.06;97587.63;10371679;28;20033;-22
2022/03/26 22:27:27;;;;;;;6.40;5.57;;;;;;;16.95;47.39;97580.81;10381028;28;20045;-22
2022/03/26 22:32:27;;;;;;;7.23;5.90;;;;;;;16.95;47.50;97579.94;10377693;28;20486;-22
2022/03/26 22:37:27;;;;;;;6.43;5.83;;;;;;;16.92;47.55;97585.78;10376145;28;20040;-22
2022/03/26 22:42:29;;;;;;;6.97;5.33;;;;;;;16.94;47.53;97585.84;10380213;28;20396;-22
2022/03/26 22:47:29;;;;;;;7.30;5.80;;;;;;;16.94;47.21;97593.41;10376785;28;20875;-21
2022/03/26 22:52:31;;;;;;;8.27;6.53;;;;;;;16.91;47.46;97583.25;10382831;28;20040;-21
2022/03/26 22:57:32;;;;;;;6.88;5.93;;;;;;;16.90;47.63;97586.63;10379393;28;20032;-22
2022/03/26 23:02:32;;;;;;;13.43;7.93;;;;;;;17.02;50.00;97589.38;10382742;28;20044;-22
2022/03/26 23:07:32;;;;;;;8.60;7.47;;;;;;;17.11;50.12;97592.06;10389147;28;20038;-22
2022/03/26 23:12:33;;;;;;;9.17;7.60;;;;;;;17.04;49.29;97570.88;10388815;28;20091;-21
2022/03/26 23:17:33;;;;;;;7.15;5.53;;;;;;;16.96;47.78;97571.53;10383684;28;20289;-22
2022/03/26 23:22:34;;;;;;;9.80;7.43;;;;;;;16.96;47.52;97574.94;10388873;28;20041;-23
2022/03/26 23:27:35;;;;;;;5.93;5.00;;;;;;;16.95;47.54;97579.94;10387219;28;20039;-22